sensor_id;sensor_type;location;lat;lon;timestamp;P1;durP1;ratioP1;P2;durP2;ratioP2
54977;SDS011;40873;47.522;19.106;2024-01-30T00:00:53;67.18;;;32.33;;
54977;SDS011;40873;47.522;19.106;2024-01-30T00:03:42;65.70;;;33.58;;
54977;SDS011;40873;47.522;19.106;2024-01-30T00:06:11;63.25;;;32.92;;
54977;SDS011;40873;47.522;19.106;2024-01-30T00:08:40;67.05;;;32.55;;
54977;SDS011;40873;47.522;19.106;2024-01-30T00:11:13;68.07;;;31.58;;
54977;SDS011;40873;47.522;19.106;2024-01-30T00:13:40;62.00;;;32.13;;
54977;SDS011;40873;47.522;19.106;2024-01-30T00:16:07;71.70;;;34.53;;
54977;SDS011;40873;47.522;19.106;2024-01-30T00:18:36;67.55;;;33.47;;
54977;SDS011;40873;47.522;19.106;2024-01-30T00:21:03;63.08;;;32.53;;
54977;SDS011;40873;47.522;19.106;2024-01-30T00:23:30;57.78;;;32.67;;
54977;SDS011;40873;47.522;19.106;2024-01-30T00:25:57;59.33;;;32.40;;
54977;SDS011;40873;47.522;19.106;2024-01-30T00:28:30;64.53;;;33.33;;
54977;SDS011;40873;47.522;19.106;2024-01-30T00:30:59;71.80;;;34.63;;
54977;SDS011;40873;47.522;19.106;2024-01-30T00:33:26;73.68;;;33.92;;
54977;SDS011;40873;47.522;19.106;2024-01-30T00:35:53;64.60;;;34.15;;
54977;SDS011;40873;47.522;19.106;2024-01-30T00:38:21;72.70;;;33.08;;
54977;SDS011;40873;47.522;19.106;2024-01-30T00:40:48;65.05;;;33.63;;
54977;SDS011;40873;47.522;19.106;2024-01-30T00:43:22;65.90;;;32.85;;
54977;SDS011;40873;47.522;19.106;2024-01-30T00:45:51;71.10;;;33.88;;
54977;SDS011;40873;47.522;19.106;2024-01-30T00:48:24;62.92;;;32.10;;
54977;SDS011;40873;47.522;19.106;2024-01-30T00:50:53;64.82;;;32.10;;
54977;SDS011;40873;47.522;19.106;2024-01-30T00:53:23;64.65;;;33.22;;
54977;SDS011;40873;47.522;19.106;2024-01-30T00:55:50;58.25;;;30.85;;
54977;SDS011;40873;47.522;19.106;2024-01-30T00:58:17;64.45;;;33.30;;
54977;SDS011;40873;47.522;19.106;2024-01-30T01:00:49;68.63;;;33.35;;
54977;SDS011;40873;47.522;19.106;2024-01-30T01:03:19;70.10;;;33.25;;
54977;SDS011;40873;47.522;19.106;2024-01-30T01:05:46;70.57;;;32.83;;
54977;SDS011;40873;47.522;19.106;2024-01-30T01:08:13;63.25;;;29.70;;
54977;SDS011;40873;47.522;19.106;2024-01-30T01:10:41;67.82;;;31.90;;
54977;SDS011;40873;47.522;19.106;2024-01-30T01:13:10;58.15;;;31.23;;
54977;SDS011;40873;47.522;19.106;2024-01-30T01:15:37;64.30;;;32.15;;
54977;SDS011;40873;47.522;19.106;2024-01-30T01:18:05;65.72;;;32.38;;
54977;SDS011;40873;47.522;19.106;2024-01-30T01:20:32;62.70;;;31.73;;
54977;SDS011;40873;47.522;19.106;2024-01-30T01:22:59;64.70;;;31.23;;
54977;SDS011;40873;47.522;19.106;2024-01-30T01:25:26;58.53;;;31.85;;
54977;SDS011;40873;47.522;19.106;2024-01-30T01:27:56;67.65;;;34.30;;
54977;SDS011;40873;47.522;19.106;2024-01-30T01:30:23;56.33;;;30.90;;
54977;SDS011;40873;47.522;19.106;2024-01-30T01:32:52;63.90;;;31.98;;
54977;SDS011;40873;47.522;19.106;2024-01-30T01:35:24;69.88;;;33.03;;
54977;SDS011;40873;47.522;19.106;2024-01-30T01:37:52;67.80;;;33.70;;
54977;SDS011;40873;47.522;19.106;2024-01-30T01:40:25;61.75;;;33.10;;
54977;SDS011;40873;47.522;19.106;2024-01-30T01:42:54;58.50;;;30.90;;
54977;SDS011;40873;47.522;19.106;2024-01-30T01:45:22;67.35;;;31.20;;
54977;SDS011;40873;47.522;19.106;2024-01-30T01:47:52;58.10;;;32.25;;
54977;SDS011;40873;47.522;19.106;2024-01-30T01:50:22;68.97;;;33.47;;
54977;SDS011;40873;47.522;19.106;2024-01-30T01:52:50;67.72;;;34.38;;
54977;SDS011;40873;47.522;19.106;2024-01-30T01:55:18;71.40;;;33.67;;
54977;SDS011;40873;47.522;19.106;2024-01-30T01:57:53;68.03;;;32.22;;
54977;SDS011;40873;47.522;19.106;2024-01-30T02:00:20;65.80;;;32.92;;
54977;SDS011;40873;47.522;19.106;2024-01-30T02:02:48;63.55;;;33.22;;
54977;SDS011;40873;47.522;19.106;2024-01-30T02:05:17;63.95;;;30.90;;
54977;SDS011;40873;47.522;19.106;2024-01-30T02:07:45;62.10;;;32.42;;
54977;SDS011;40873;47.522;19.106;2024-01-30T02:10:12;67.03;;;32.33;;
54977;SDS011;40873;47.522;19.106;2024-01-30T02:12:41;64.70;;;33.75;;
54977;SDS011;40873;47.522;19.106;2024-01-30T02:15:07;65.30;;;33.22;;
54977;SDS011;40873;47.522;19.106;2024-01-30T02:17:37;60.85;;;30.95;;
54977;SDS011;40873;47.522;19.106;2024-01-30T02:20:04;67.60;;;34.17;;
54977;SDS011;40873;47.522;19.106;2024-01-30T02:22:32;72.50;;;33.10;;
54977;SDS011;40873;47.522;19.106;2024-01-30T02:25:00;69.95;;;33.20;;
54977;SDS011;40873;47.522;19.106;2024-01-30T02:27:30;64.18;;;32.38;;
54977;SDS011;40873;47.522;19.106;2024-01-30T02:29:57;65.35;;;33.25;;
54977;SDS011;40873;47.522;19.106;2024-01-30T02:32:24;69.95;;;33.55;;
54977;SDS011;40873;47.522;19.106;2024-01-30T02:34:51;71.10;;;34.65;;
54977;SDS011;40873;47.522;19.106;2024-01-30T02:37:18;72.57;;;33.20;;
54977;SDS011;40873;47.522;19.106;2024-01-30T02:39:46;67.95;;;34.05;;
54977;SDS011;40873;47.522;19.106;2024-01-30T02:42:14;72.80;;;34.50;;
54977;SDS011;40873;47.522;19.106;2024-01-30T02:44:43;78.43;;;35.17;;
54977;SDS011;40873;47.522;19.106;2024-01-30T02:47:10;61.10;;;32.60;;
54977;SDS011;40873;47.522;19.106;2024-01-30T02:49:37;67.22;;;33.88;;
54977;SDS011;40873;47.522;19.106;2024-01-30T02:52:05;70.85;;;33.25;;
54977;SDS011;40873;47.522;19.106;2024-01-30T02:54:32;64.85;;;33.30;;
54977;SDS011;40873;47.522;19.106;2024-01-30T02:57:03;73.20;;;34.33;;
54977;SDS011;40873;47.522;19.106;2024-01-30T02:59:31;67.85;;;33.05;;
54977;SDS011;40873;47.522;19.106;2024-01-30T03:02:03;64.35;;;34.25;;
54977;SDS011;40873;47.522;19.106;2024-01-30T03:04:33;69.90;;;32.63;;
54977;SDS011;40873;47.522;19.106;2024-01-30T03:07:00;71.70;;;34.13;;
54977;SDS011;40873;47.522;19.106;2024-01-30T03:09:27;71.13;;;34.25;;
54977;SDS011;40873;47.522;19.106;2024-01-30T03:11:55;67.18;;;34.78;;
54977;SDS011;40873;47.522;19.106;2024-01-30T03:14:22;74.15;;;37.03;;
54977;SDS011;40873;47.522;19.106;2024-01-30T03:16:49;77.85;;;37.95;;
54977;SDS011;40873;47.522;19.106;2024-01-30T03:19:16;69.38;;;35.15;;
54977;SDS011;40873;47.522;19.106;2024-01-30T03:21:43;69.20;;;34.45;;
54977;SDS011;40873;47.522;19.106;2024-01-30T03:24:10;70.18;;;33.63;;
54977;SDS011;40873;47.522;19.106;2024-01-30T03:26:38;68.55;;;32.53;;
54977;SDS011;40873;47.522;19.106;2024-01-30T03:29:05;64.65;;;33.92;;
54977;SDS011;40873;47.522;19.106;2024-01-30T03:31:32;69.65;;;33.22;;
54977;SDS011;40873;47.522;19.106;2024-01-30T03:33:59;68.60;;;34.22;;
54977;SDS011;40873;47.522;19.106;2024-01-30T03:36:26;80.07;;;35.45;;
54977;SDS011;40873;47.522;19.106;2024-01-30T03:38:53;74.28;;;34.63;;
54977;SDS011;40873;47.522;19.106;2024-01-30T03:41:23;70.93;;;36.05;;
54977;SDS011;40873;47.522;19.106;2024-01-30T03:43:53;68.05;;;34.15;;
54977;SDS011;40873;47.522;19.106;2024-01-30T03:46:22;75.57;;;36.08;;
54977;SDS011;40873;47.522;19.106;2024-01-30T03:48:49;71.20;;;34.30;;
54977;SDS011;40873;47.522;19.106;2024-01-30T03:51:16;72.80;;;36.58;;
54977;SDS011;40873;47.522;19.106;2024-01-30T03:53:43;71.53;;;34.40;;
54977;SDS011;40873;47.522;19.106;2024-01-30T03:56:10;71.47;;;36.10;;
54977;SDS011;40873;47.522;19.106;2024-01-30T03:58:37;68.65;;;34.00;;
54977;SDS011;40873;47.522;19.106;2024-01-30T04:01:07;69.32;;;35.08;;
54977;SDS011;40873;47.522;19.106;2024-01-30T04:03:40;73.93;;;37.30;;
54977;SDS011;40873;47.522;19.106;2024-01-30T04:06:08;69.68;;;35.97;;
54977;SDS011;40873;47.522;19.106;2024-01-30T04:08:35;73.13;;;36.22;;
54977;SDS011;40873;47.522;19.106;2024-01-30T04:11:04;68.95;;;36.22;;
54977;SDS011;40873;47.522;19.106;2024-01-30T04:13:35;68.45;;;35.17;;
54977;SDS011;40873;47.522;19.106;2024-01-30T04:16:02;67.50;;;34.80;;
54977;SDS011;40873;47.522;19.106;2024-01-30T04:18:30;70.28;;;34.03;;
54977;SDS011;40873;47.522;19.106;2024-01-30T04:20:57;70.00;;;33.65;;
54977;SDS011;40873;47.522;19.106;2024-01-30T04:23:24;70.43;;;35.55;;
54977;SDS011;40873;47.522;19.106;2024-01-30T04:25:54;74.75;;;34.75;;
54977;SDS011;40873;47.522;19.106;2024-01-30T04:28:21;72.93;;;36.67;;
54977;SDS011;40873;47.522;19.106;2024-01-30T04:30:49;74.80;;;35.67;;
54977;SDS011;40873;47.522;19.106;2024-01-30T04:33:16;68.60;;;35.60;;
54977;SDS011;40873;47.522;19.106;2024-01-30T04:35:46;69.85;;;35.53;;
54977;SDS011;40873;47.522;19.106;2024-01-30T04:38:12;75.82;;;35.97;;
54977;SDS011;40873;47.522;19.106;2024-01-30T04:40:41;68.15;;;35.63;;
54977;SDS011;40873;47.522;19.106;2024-01-30T04:43:08;73.88;;;36.92;;
54977;SDS011;40873;47.522;19.106;2024-01-30T04:45:44;66.88;;;36.25;;
54977;SDS011;40873;47.522;19.106;2024-01-30T04:48:12;74.25;;;36.28;;
54977;SDS011;40873;47.522;19.106;2024-01-30T04:50:39;69.63;;;35.65;;
54977;SDS011;40873;47.522;19.106;2024-01-30T04:53:06;69.38;;;36.10;;
54977;SDS011;40873;47.522;19.106;2024-01-30T04:55:35;64.78;;;33.55;;
54977;SDS011;40873;47.522;19.106;2024-01-30T04:58:02;69.53;;;36.10;;
54977;SDS011;40873;47.522;19.106;2024-01-30T05:00:29;67.53;;;36.65;;
54977;SDS011;40873;47.522;19.106;2024-01-30T05:02:56;76.78;;;35.88;;
54977;SDS011;40873;47.522;19.106;2024-01-30T05:05:23;72.15;;;38.38;;
54977;SDS011;40873;47.522;19.106;2024-01-30T05:07:50;72.82;;;36.45;;
54977;SDS011;40873;47.522;19.106;2024-01-30T05:10:17;71.75;;;36.45;;
54977;SDS011;40873;47.522;19.106;2024-01-30T05:12:44;74.55;;;37.08;;
54977;SDS011;40873;47.522;19.106;2024-01-30T05:15:12;68.10;;;35.85;;
54977;SDS011;40873;47.522;19.106;2024-01-30T05:17:39;119.07;;;61.92;;
54977;SDS011;40873;47.522;19.106;2024-01-30T05:20:06;80.13;;;40.25;;
54977;SDS011;40873;47.522;19.106;2024-01-30T05:22:34;75.55;;;38.20;;
54977;SDS011;40873;47.522;19.106;2024-01-30T05:25:04;67.60;;;36.10;;
54977;SDS011;40873;47.522;19.106;2024-01-30T05:27:31;72.10;;;37.17;;
54977;SDS011;40873;47.522;19.106;2024-01-30T05:30:01;65.30;;;36.15;;
54977;SDS011;40873;47.522;19.106;2024-01-30T05:32:28;67.00;;;35.83;;
54977;SDS011;40873;47.522;19.106;2024-01-30T05:34:56;77.05;;;36.70;;
54977;SDS011;40873;47.522;19.106;2024-01-30T05:37:23;70.80;;;38.15;;
54977;SDS011;40873;47.522;19.106;2024-01-30T05:39:50;74.45;;;38.03;;
54977;SDS011;40873;47.522;19.106;2024-01-30T05:42:17;78.50;;;40.03;;
54977;SDS011;40873;47.522;19.106;2024-01-30T05:44:45;68.68;;;38.55;;
54977;SDS011;40873;47.522;19.106;2024-01-30T05:47:11;84.70;;;40.00;;
54977;SDS011;40873;47.522;19.106;2024-01-30T05:49:39;90.22;;;42.65;;
54977;SDS011;40873;47.522;19.106;2024-01-30T05:52:06;83.15;;;40.97;;
54977;SDS011;40873;47.522;19.106;2024-01-30T05:54:36;79.32;;;40.70;;
54977;SDS011;40873;47.522;19.106;2024-01-30T05:57:03;77.15;;;38.88;;
54977;SDS011;40873;47.522;19.106;2024-01-30T05:59:31;75.28;;;39.80;;
54977;SDS011;40873;47.522;19.106;2024-01-30T06:01:58;85.15;;;45.33;;
54977;SDS011;40873;47.522;19.106;2024-01-30T06:04:26;89.93;;;46.83;;
54977;SDS011;40873;47.522;19.106;2024-01-30T06:06:53;87.68;;;44.22;;
54977;SDS011;40873;47.522;19.106;2024-01-30T06:09:20;79.28;;;42.95;;
54977;SDS011;40873;47.522;19.106;2024-01-30T06:11:50;79.35;;;41.53;;
54977;SDS011;40873;47.522;19.106;2024-01-30T06:14:17;81.30;;;40.15;;
54977;SDS011;40873;47.522;19.106;2024-01-30T06:16:47;76.35;;;40.45;;
54977;SDS011;40873;47.522;19.106;2024-01-30T06:19:15;78.43;;;41.22;;
54977;SDS011;40873;47.522;19.106;2024-01-30T06:21:42;80.07;;;40.22;;
54977;SDS011;40873;47.522;19.106;2024-01-30T06:24:12;79.22;;;40.03;;
54977;SDS011;40873;47.522;19.106;2024-01-30T06:26:40;78.00;;;39.80;;
54977;SDS011;40873;47.522;19.106;2024-01-30T06:29:08;86.22;;;40.78;;
54977;SDS011;40873;47.522;19.106;2024-01-30T06:31:40;74.80;;;38.15;;
54977;SDS011;40873;47.522;19.106;2024-01-30T06:34:10;74.68;;;39.72;;
54977;SDS011;40873;47.522;19.106;2024-01-30T06:36:38;81.03;;;42.00;;
54977;SDS011;40873;47.522;19.106;2024-01-30T06:39:05;79.22;;;39.80;;
54977;SDS011;40873;47.522;19.106;2024-01-30T06:41:34;75.05;;;38.83;;
54977;SDS011;40873;47.522;19.106;2024-01-30T06:44:02;80.13;;;38.45;;
54977;SDS011;40873;47.522;19.106;2024-01-30T06:46:31;117.95;;;58.40;;
54977;SDS011;40873;47.522;19.106;2024-01-30T06:48:59;108.35;;;57.75;;
54977;SDS011;40873;47.522;19.106;2024-01-30T06:51:26;81.95;;;40.25;;
54977;SDS011;40873;47.522;19.106;2024-01-30T06:53:54;104.47;;;52.35;;
54977;SDS011;40873;47.522;19.106;2024-01-30T06:56:21;88.07;;;46.05;;
54977;SDS011;40873;47.522;19.106;2024-01-30T06:58:50;84.90;;;45.40;;
54977;SDS011;40873;47.522;19.106;2024-01-30T07:01:17;64.90;;;36.00;;
54977;SDS011;40873;47.522;19.106;2024-01-30T07:03:45;68.03;;;36.08;;
54977;SDS011;40873;47.522;19.106;2024-01-30T07:06:13;69.35;;;36.28;;
54977;SDS011;40873;47.522;19.106;2024-01-30T07:08:41;65.22;;;36.05;;
54977;SDS011;40873;47.522;19.106;2024-01-30T07:11:07;66.00;;;34.65;;
54977;SDS011;40873;47.522;19.106;2024-01-30T07:13:35;66.05;;;33.92;;
54977;SDS011;40873;47.522;19.106;2024-01-30T07:16:02;70.63;;;35.60;;
54977;SDS011;40873;47.522;19.106;2024-01-30T07:18:29;65.10;;;34.25;;
54977;SDS011;40873;47.522;19.106;2024-01-30T07:20:56;68.20;;;34.17;;
54977;SDS011;40873;47.522;19.106;2024-01-30T07:23:23;63.85;;;32.42;;
54977;SDS011;40873;47.522;19.106;2024-01-30T07:25:50;64.30;;;33.45;;
54977;SDS011;40873;47.522;19.106;2024-01-30T07:28:18;64.82;;;33.33;;
54977;SDS011;40873;47.522;19.106;2024-01-30T07:30:48;60.53;;;31.63;;
54977;SDS011;40873;47.522;19.106;2024-01-30T07:33:19;60.55;;;30.20;;
54977;SDS011;40873;47.522;19.106;2024-01-30T07:35:49;55.30;;;30.52;;
54977;SDS011;40873;47.522;19.106;2024-01-30T07:38:18;50.65;;;28.10;;
54977;SDS011;40873;47.522;19.106;2024-01-30T07:40:48;58.65;;;29.73;;
54977;SDS011;40873;47.522;19.106;2024-01-30T07:43:16;59.30;;;30.55;;
54977;SDS011;40873;47.522;19.106;2024-01-30T07:45:43;65.88;;;35.35;;
54977;SDS011;40873;47.522;19.106;2024-01-30T07:48:10;73.00;;;37.03;;
54977;SDS011;40873;47.522;19.106;2024-01-30T07:50:38;90.00;;;40.50;;
54977;SDS011;40873;47.522;19.106;2024-01-30T07:53:05;80.22;;;38.63;;
54977;SDS011;40873;47.522;19.106;2024-01-30T07:55:32;75.80;;;37.25;;
54977;SDS011;40873;47.522;19.106;2024-01-30T07:58:18;78.95;;;36.72;;
54977;SDS011;40873;47.522;19.106;2024-01-30T08:00:45;73.43;;;37.60;;
54977;SDS011;40873;47.522;19.106;2024-01-30T08:03:12;71.63;;;34.22;;
54977;SDS011;40873;47.522;19.106;2024-01-30T08:05:40;68.50;;;33.50;;
54977;SDS011;40873;47.522;19.106;2024-01-30T08:08:11;66.85;;;29.58;;
54977;SDS011;40873;47.522;19.106;2024-01-30T08:10:38;52.05;;;28.52;;
54977;SDS011;40873;47.522;19.106;2024-01-30T08:13:07;57.45;;;27.17;;
54977;SDS011;40873;47.522;19.106;2024-01-30T08:15:35;57.17;;;28.42;;
54977;SDS011;40873;47.522;19.106;2024-01-30T08:18:03;64.68;;;27.55;;
54977;SDS011;40873;47.522;19.106;2024-01-30T08:20:33;59.47;;;28.80;;
54977;SDS011;40873;47.522;19.106;2024-01-30T08:23:03;54.17;;;28.98;;
54977;SDS011;40873;47.522;19.106;2024-01-30T08:25:30;53.85;;;26.60;;
54977;SDS011;40873;47.522;19.106;2024-01-30T08:27:58;58.70;;;26.40;;
54977;SDS011;40873;47.522;19.106;2024-01-30T08:30:25;49.30;;;25.13;;
54977;SDS011;40873;47.522;19.106;2024-01-30T08:32:52;45.45;;;25.80;;
54977;SDS011;40873;47.522;19.106;2024-01-30T08:35:19;48.33;;;26.40;;
54977;SDS011;40873;47.522;19.106;2024-01-30T08:37:47;56.65;;;27.27;;
54977;SDS011;40873;47.522;19.106;2024-01-30T08:40:16;48.75;;;25.95;;
54977;SDS011;40873;47.522;19.106;2024-01-30T08:42:44;44.58;;;26.35;;
54977;SDS011;40873;47.522;19.106;2024-01-30T08:45:11;44.38;;;24.83;;
54977;SDS011;40873;47.522;19.106;2024-01-30T08:47:38;50.65;;;26.17;;
54977;SDS011;40873;47.522;19.106;2024-01-30T08:50:07;50.38;;;25.55;;
54977;SDS011;40873;47.522;19.106;2024-01-30T08:52:35;44.60;;;23.38;;
54977;SDS011;40873;47.522;19.106;2024-01-30T08:55:02;45.85;;;24.77;;
54977;SDS011;40873;47.522;19.106;2024-01-30T08:57:30;49.13;;;23.60;;
54977;SDS011;40873;47.522;19.106;2024-01-30T09:00:03;52.67;;;26.58;;
54977;SDS011;40873;47.522;19.106;2024-01-30T09:02:33;52.08;;;26.65;;
54977;SDS011;40873;47.522;19.106;2024-01-30T09:05:00;48.45;;;25.75;;
54977;SDS011;40873;47.522;19.106;2024-01-30T09:07:28;47.35;;;24.92;;
54977;SDS011;40873;47.522;19.106;2024-01-30T09:09:55;51.28;;;25.25;;
54977;SDS011;40873;47.522;19.106;2024-01-30T09:12:22;44.25;;;25.08;;
54977;SDS011;40873;47.522;19.106;2024-01-30T09:14:49;49.85;;;26.38;;
54977;SDS011;40873;47.522;19.106;2024-01-30T09:17:17;49.38;;;23.42;;
54977;SDS011;40873;47.522;19.106;2024-01-30T09:19:47;50.60;;;25.48;;
54977;SDS011;40873;47.522;19.106;2024-01-30T09:22:14;45.88;;;23.38;;
54977;SDS011;40873;47.522;19.106;2024-01-30T09:24:41;47.97;;;24.85;;
54977;SDS011;40873;47.522;19.106;2024-01-30T09:27:10;52.42;;;25.85;;
54977;SDS011;40873;47.522;19.106;2024-01-30T09:29:37;52.45;;;28.02;;
54977;SDS011;40873;47.522;19.106;2024-01-30T09:32:04;46.13;;;26.23;;
54977;SDS011;40873;47.522;19.106;2024-01-30T09:34:32;48.45;;;24.00;;
54977;SDS011;40873;47.522;19.106;2024-01-30T09:37:00;42.25;;;23.15;;
54977;SDS011;40873;47.522;19.106;2024-01-30T09:39:27;45.58;;;24.58;;
54977;SDS011;40873;47.522;19.106;2024-01-30T09:44:32;42.45;;;22.67;;
54977;SDS011;40873;47.522;19.106;2024-01-30T09:47:03;42.83;;;22.58;;
54977;SDS011;40873;47.522;19.106;2024-01-30T09:49:32;39.97;;;22.70;;
54977;SDS011;40873;47.522;19.106;2024-01-30T09:52:05;42.63;;;21.97;;
54977;SDS011;40873;47.522;19.106;2024-01-30T09:54:33;39.15;;;20.67;;
54977;SDS011;40873;47.522;19.106;2024-01-30T09:57:03;32.50;;;17.05;;
54977;SDS011;40873;47.522;19.106;2024-01-30T09:59:33;26.90;;;14.32;;
54977;SDS011;40873;47.522;19.106;2024-01-30T10:02:01;34.53;;;17.25;;
54977;SDS011;40873;47.522;19.106;2024-01-30T10:04:31;30.95;;;14.90;;
54977;SDS011;40873;47.522;19.106;2024-01-30T10:07:01;29.77;;;11.93;;
54977;SDS011;40873;47.522;19.106;2024-01-30T10:09:33;30.90;;;14.93;;
54977;SDS011;40873;47.522;19.106;2024-01-30T10:12:04;30.98;;;16.00;;
54977;SDS011;40873;47.522;19.106;2024-01-30T10:14:32;32.42;;;16.55;;
54977;SDS011;40873;47.522;19.106;2024-01-30T10:17:00;29.15;;;15.93;;
54977;SDS011;40873;47.522;19.106;2024-01-30T10:19:35;36.58;;;16.88;;
54977;SDS011;40873;47.522;19.106;2024-01-30T10:22:04;30.13;;;16.55;;
54977;SDS011;40873;47.522;19.106;2024-01-30T10:24:32;31.17;;;15.82;;
54977;SDS011;40873;47.522;19.106;2024-01-30T10:27:00;35.80;;;15.65;;
54977;SDS011;40873;47.522;19.106;2024-01-30T10:29:27;28.13;;;15.57;;
54977;SDS011;40873;47.522;19.106;2024-01-30T10:32:02;31.23;;;15.52;;
54977;SDS011;40873;47.522;19.106;2024-01-30T10:34:30;27.88;;;15.75;;
54977;SDS011;40873;47.522;19.106;2024-01-30T10:37:07;31.33;;;16.98;;
54977;SDS011;40873;47.522;19.106;2024-01-30T10:39:42;31.25;;;15.90;;
54977;SDS011;40873;47.522;19.106;2024-01-30T10:42:20;29.20;;;15.48;;
54977;SDS011;40873;47.522;19.106;2024-01-30T10:45:08;33.83;;;15.88;;
54977;SDS011;40873;47.522;19.106;2024-01-30T10:47:36;29.25;;;14.95;;
54977;SDS011;40873;47.522;19.106;2024-01-30T10:50:04;32.25;;;15.63;;
54977;SDS011;40873;47.522;19.106;2024-01-30T10:52:32;30.42;;;14.68;;
54977;SDS011;40873;47.522;19.106;2024-01-30T10:55:02;29.27;;;12.23;;
54977;SDS011;40873;47.522;19.106;2024-01-30T10:57:33;24.52;;;12.85;;
54977;SDS011;40873;47.522;19.106;2024-01-30T11:00:10;26.02;;;13.13;;
54977;SDS011;40873;47.522;19.106;2024-01-30T11:02:43;19.98;;;11.98;;
54977;SDS011;40873;47.522;19.106;2024-01-30T11:05:13;20.48;;;12.40;;
54977;SDS011;40873;47.522;19.106;2024-01-30T11:07:46;20.17;;;11.73;;
54977;SDS011;40873;47.522;19.106;2024-01-30T11:10:13;24.75;;;13.48;;
54977;SDS011;40873;47.522;19.106;2024-01-30T11:12:48;25.77;;;13.23;;
54977;SDS011;40873;47.522;19.106;2024-01-30T11:15:16;23.90;;;11.65;;
54977;SDS011;40873;47.522;19.106;2024-01-30T11:17:45;20.65;;;11.88;;
54977;SDS011;40873;47.522;19.106;2024-01-30T11:22:45;21.50;;;11.65;;
54977;SDS011;40873;47.522;19.106;2024-01-30T11:25:14;23.20;;;11.65;;
54977;SDS011;40873;47.522;19.106;2024-01-30T11:27:49;26.77;;;12.48;;
54977;SDS011;40873;47.522;19.106;2024-01-30T11:30:23;23.30;;;12.77;;
54977;SDS011;40873;47.522;19.106;2024-01-30T11:35:37;25.58;;;10.63;;
54977;SDS011;40873;47.522;19.106;2024-01-30T11:38:14;22.90;;;12.57;;
54977;SDS011;40873;47.522;19.106;2024-01-30T11:40:41;15.20;;;7.95;;
54977;SDS011;40873;47.522;19.106;2024-01-30T11:43:09;19.20;;;9.88;;
54977;SDS011;40873;47.522;19.106;2024-01-30T11:45:36;22.63;;;10.68;;
54977;SDS011;40873;47.522;19.106;2024-01-30T11:48:07;23.60;;;10.35;;
54977;SDS011;40873;47.522;19.106;2024-01-30T11:50:37;24.25;;;10.30;;
54977;SDS011;40873;47.522;19.106;2024-01-30T11:53:08;18.80;;;10.55;;
54977;SDS011;40873;47.522;19.106;2024-01-30T11:55:37;24.48;;;11.68;;
54977;SDS011;40873;47.522;19.106;2024-01-30T11:58:06;16.45;;;8.95;;
54977;SDS011;40873;47.522;19.106;2024-01-30T12:00:33;24.55;;;12.98;;
54977;SDS011;40873;47.522;19.106;2024-01-30T12:03:02;19.67;;;10.68;;
54977;SDS011;40873;47.522;19.106;2024-01-30T12:05:30;12.95;;;8.13;;
54977;SDS011;40873;47.522;19.106;2024-01-30T12:08:00;22.30;;;10.65;;
54977;SDS011;40873;47.522;19.106;2024-01-30T12:10:29;17.98;;;9.45;;
54977;SDS011;40873;47.522;19.106;2024-01-30T12:12:57;23.77;;;11.88;;
54977;SDS011;40873;47.522;19.106;2024-01-30T12:15:25;22.85;;;12.38;;
54977;SDS011;40873;47.522;19.106;2024-01-30T12:17:52;22.23;;;9.63;;
54977;SDS011;40873;47.522;19.106;2024-01-30T12:20:34;20.58;;;9.30;;
54977;SDS011;40873;47.522;19.106;2024-01-30T12:23:02;23.23;;;12.10;;
54977;SDS011;40873;47.522;19.106;2024-01-30T12:25:29;22.50;;;11.40;;
54977;SDS011;40873;47.522;19.106;2024-01-30T12:28:00;18.50;;;10.82;;
54977;SDS011;40873;47.522;19.106;2024-01-30T12:30:30;20.90;;;10.18;;
54977;SDS011;40873;47.522;19.106;2024-01-30T12:32:57;19.80;;;9.85;;
54977;SDS011;40873;47.522;19.106;2024-01-30T12:35:25;18.95;;;10.93;;
54977;SDS011;40873;47.522;19.106;2024-01-30T12:37:52;20.13;;;10.60;;
54977;SDS011;40873;47.522;19.106;2024-01-30T12:40:19;17.45;;;9.45;;
54977;SDS011;40873;47.522;19.106;2024-01-30T12:42:47;14.60;;;8.65;;
54977;SDS011;40873;47.522;19.106;2024-01-30T12:45:18;20.23;;;10.00;;
54977;SDS011;40873;47.522;19.106;2024-01-30T12:47:50;17.02;;;8.82;;
54977;SDS011;40873;47.522;19.106;2024-01-30T12:50:18;11.90;;;6.75;;
54977;SDS011;40873;47.522;19.106;2024-01-30T12:52:46;17.80;;;8.02;;
54977;SDS011;40873;47.522;19.106;2024-01-30T12:55:16;18.05;;;9.02;;
54977;SDS011;40873;47.522;19.106;2024-01-30T12:57:44;16.00;;;7.65;;
54977;SDS011;40873;47.522;19.106;2024-01-30T13:00:11;16.33;;;7.90;;
54977;SDS011;40873;47.522;19.106;2024-01-30T13:02:38;19.73;;;7.28;;
54977;SDS011;40873;47.522;19.106;2024-01-30T13:05:09;13.82;;;7.90;;
54977;SDS011;40873;47.522;19.106;2024-01-30T13:07:44;20.30;;;9.27;;
54977;SDS011;40873;47.522;19.106;2024-01-30T13:10:11;9.60;;;5.22;;
54977;SDS011;40873;47.522;19.106;2024-01-30T13:12:38;16.02;;;8.15;;
54977;SDS011;40873;47.522;19.106;2024-01-30T13:15:08;15.20;;;7.30;;
54977;SDS011;40873;47.522;19.106;2024-01-30T13:17:35;14.50;;;7.43;;
54977;SDS011;40873;47.522;19.106;2024-01-30T13:20:02;11.75;;;5.85;;
54977;SDS011;40873;47.522;19.106;2024-01-30T13:22:38;15.85;;;7.70;;
54977;SDS011;40873;47.522;19.106;2024-01-30T13:25:06;16.23;;;7.25;;
54977;SDS011;40873;47.522;19.106;2024-01-30T13:27:34;14.10;;;7.10;;
54977;SDS011;40873;47.522;19.106;2024-01-30T13:30:05;13.55;;;7.38;;
54977;SDS011;40873;47.522;19.106;2024-01-30T13:32:37;12.95;;;7.22;;
54977;SDS011;40873;47.522;19.106;2024-01-30T13:35:04;14.77;;;6.63;;
54977;SDS011;40873;47.522;19.106;2024-01-30T13:37:32;12.27;;;5.85;;
54977;SDS011;40873;47.522;19.106;2024-01-30T13:40:06;14.40;;;6.72;;
54977;SDS011;40873;47.522;19.106;2024-01-30T13:42:38;10.23;;;5.60;;
54977;SDS011;40873;47.522;19.106;2024-01-30T13:45:05;11.93;;;6.22;;
54977;SDS011;40873;47.522;19.106;2024-01-30T13:47:32;12.20;;;6.25;;
54977;SDS011;40873;47.522;19.106;2024-01-30T13:49:59;12.32;;;6.18;;
54977;SDS011;40873;47.522;19.106;2024-01-30T13:52:30;14.95;;;6.75;;
54977;SDS011;40873;47.522;19.106;2024-01-30T13:57:32;12.23;;;6.18;;
54977;SDS011;40873;47.522;19.106;2024-01-30T14:00:05;7.68;;;4.43;;
54977;SDS011;40873;47.522;19.106;2024-01-30T14:02:34;9.25;;;5.25;;
54977;SDS011;40873;47.522;19.106;2024-01-30T14:05:01;11.68;;;6.25;;
54977;SDS011;40873;47.522;19.106;2024-01-30T14:07:28;7.53;;;2.97;;
54977;SDS011;40873;47.522;19.106;2024-01-30T14:09:56;9.93;;;5.97;;
54977;SDS011;40873;47.522;19.106;2024-01-30T14:12:23;10.50;;;5.95;;
54977;SDS011;40873;47.522;19.106;2024-01-30T14:14:50;13.75;;;5.90;;
54977;SDS011;40873;47.522;19.106;2024-01-30T14:17:17;14.35;;;6.40;;
54977;SDS011;40873;47.522;19.106;2024-01-30T14:19:47;11.38;;;5.95;;
54977;SDS011;40873;47.522;19.106;2024-01-30T14:22:15;14.20;;;6.10;;
54977;SDS011;40873;47.522;19.106;2024-01-30T14:24:45;13.45;;;6.38;;
54977;SDS011;40873;47.522;19.106;2024-01-30T14:27:13;10.95;;;6.40;;
54977;SDS011;40873;47.522;19.106;2024-01-30T14:29:40;11.75;;;6.15;;